sensor_id;sensor_type;location;lat;lon;timestamp;P1;durP1;ratioP1;P2;durP2;ratioP2
57463;SDS011;43309;44.418;26.122;2023-07-31T00:02:29;8.00;;;4.10;;
57463;SDS011;43309;44.418;26.122;2023-07-31T00:04:56;5.10;;;4.60;;
57463;SDS011;43309;44.418;26.122;2023-07-31T00:07:24;5.60;;;4.30;;
57463;SDS011;43309;44.418;26.122;2023-07-31T00:09:51;6.80;;;4.80;;
57463;SDS011;43309;44.418;26.122;2023-07-31T00:12:20;5.80;;;5.20;;
57463;SDS011;43309;44.418;26.122;2023-07-31T00:14:48;9.00;;;5.30;;
57463;SDS011;43309;44.418;26.122;2023-07-31T00:17:16;5.70;;;5.20;;
57463;SDS011;43309;44.418;26.122;2023-07-31T00:19:50;5.20;;;4.70;;
57463;SDS011;43309;44.418;26.122;2023-07-31T00:22:17;5.80;;;5.20;;
57463;SDS011;43309;44.418;26.122;2023-07-31T00:24:45;7.40;;;5.20;;
57463;SDS011;43309;44.418;26.122;2023-07-31T00:27:13;7.90;;;4.80;;
57463;SDS011;43309;44.418;26.122;2023-07-31T00:29:40;7.10;;;5.70;;
57463;SDS011;43309;44.418;26.122;2023-07-31T00:32:08;9.40;;;5.10;;
57463;SDS011;43309;44.418;26.122;2023-07-31T00:34:36;9.00;;;5.10;;
57463;SDS011;43309;44.418;26.122;2023-07-31T00:37:04;7.60;;;5.00;;
57463;SDS011;43309;44.418;26.122;2023-07-31T00:39:33;7.30;;;5.30;;
57463;SDS011;43309;44.418;26.122;2023-07-31T00:42:01;8.00;;;5.40;;
57463;SDS011;43309;44.418;26.122;2023-07-31T00:44:28;6.10;;;5.10;;
57463;SDS011;43309;44.418;26.122;2023-07-31T00:46:57;6.30;;;4.90;;
57463;SDS011;43309;44.418;26.122;2023-07-31T00:49:26;4.90;;;4.50;;
57463;SDS011;43309;44.418;26.122;2023-07-31T00:51:54;8.10;;;5.00;;
57463;SDS011;43309;44.418;26.122;2023-07-31T00:54:24;6.30;;;5.00;;
57463;SDS011;43309;44.418;26.122;2023-07-31T00:56:51;6.60;;;5.00;;
57463;SDS011;43309;44.418;26.122;2023-07-31T00:59:20;4.90;;;4.50;;
57463;SDS011;43309;44.418;26.122;2023-07-31T01:01:47;5.80;;;4.60;;
57463;SDS011;43309;44.418;26.122;2023-07-31T01:04:15;5.80;;;4.70;;
57463;SDS011;43309;44.418;26.122;2023-07-31T01:06:44;5.10;;;4.60;;
57463;SDS011;43309;44.418;26.122;2023-07-31T01:12:00;5.20;;;4.80;;
57463;SDS011;43309;44.418;26.122;2023-07-31T01:14:29;5.90;;;4.50;;
57463;SDS011;43309;44.418;26.122;2023-07-31T01:16:57;5.30;;;4.60;;
57463;SDS011;43309;44.418;26.122;2023-07-31T01:19:27;5.10;;;4.40;;
57463;SDS011;43309;44.418;26.122;2023-07-31T01:27:49;5.50;;;4.90;;
57463;SDS011;43309;44.418;26.122;2023-07-31T01:30:22;5.10;;;4.60;;
57463;SDS011;43309;44.418;26.122;2023-07-31T01:35:18;5.30;;;4.60;;
57463;SDS011;43309;44.418;26.122;2023-07-31T01:37:46;5.30;;;4.70;;
57463;SDS011;43309;44.418;26.122;2023-07-31T01:40:13;5.50;;;4.30;;
57463;SDS011;43309;44.418;26.122;2023-07-31T01:42:41;6.50;;;4.40;;
57463;SDS011;43309;44.418;26.122;2023-07-31T01:45:08;5.00;;;4.60;;
57463;SDS011;43309;44.418;26.122;2023-07-31T01:47:39;4.90;;;4.50;;
57463;SDS011;43309;44.418;26.122;2023-07-31T01:50:06;4.60;;;4.30;;
57463;SDS011;43309;44.418;26.122;2023-07-31T01:52:36;5.50;;;4.00;;
57463;SDS011;43309;44.418;26.122;2023-07-31T01:55:04;5.60;;;4.00;;
57463;SDS011;43309;44.418;26.122;2023-07-31T01:57:31;4.30;;;3.90;;
57463;SDS011;43309;44.418;26.122;2023-07-31T01:59:59;4.90;;;4.40;;
57463;SDS011;43309;44.418;26.122;2023-07-31T02:02:26;4.80;;;4.30;;
57463;SDS011;43309;44.418;26.122;2023-07-31T02:04:55;5.30;;;4.00;;
57463;SDS011;43309;44.418;26.122;2023-07-31T02:07:22;5.50;;;4.40;;
57463;SDS011;43309;44.418;26.122;2023-07-31T02:09:50;4.40;;;3.80;;
57463;SDS011;43309;44.418;26.122;2023-07-31T02:12:17;4.40;;;4.00;;
57463;SDS011;43309;44.418;26.122;2023-07-31T02:14:45;5.10;;;4.50;;
57463;SDS011;43309;44.418;26.122;2023-07-31T02:17:12;4.70;;;4.30;;
57463;SDS011;43309;44.418;26.122;2023-07-31T02:19:42;4.30;;;4.00;;
57463;SDS011;43309;44.418;26.122;2023-07-31T02:22:10;4.40;;;4.00;;
57463;SDS011;43309;44.418;26.122;2023-07-31T02:24:38;5.80;;;4.30;;
57463;SDS011;43309;44.418;26.122;2023-07-31T02:27:05;5.40;;;4.20;;
57463;SDS011;43309;44.418;26.122;2023-07-31T02:29:33;4.70;;;4.10;;
57463;SDS011;43309;44.418;26.122;2023-07-31T02:32:03;5.40;;;4.20;;
57463;SDS011;43309;44.418;26.122;2023-07-31T02:34:32;4.70;;;4.10;;
57463;SDS011;43309;44.418;26.122;2023-07-31T02:37:00;6.90;;;4.20;;
57463;SDS011;43309;44.418;26.122;2023-07-31T02:39:27;4.30;;;3.80;;
57463;SDS011;43309;44.418;26.122;2023-07-31T02:41:55;6.50;;;4.00;;
57463;SDS011;43309;44.418;26.122;2023-07-31T02:44:22;5.90;;;4.40;;
57463;SDS011;43309;44.418;26.122;2023-07-31T02:46:49;6.60;;;4.00;;
57463;SDS011;43309;44.418;26.122;2023-07-31T02:49:17;4.50;;;4.10;;
57463;SDS011;43309;44.418;26.122;2023-07-31T02:51:46;5.30;;;4.80;;
57463;SDS011;43309;44.418;26.122;2023-07-31T02:54:14;8.50;;;4.50;;
57463;SDS011;43309;44.418;26.122;2023-07-31T02:56:47;5.10;;;4.30;;
57463;SDS011;43309;44.418;26.122;2023-07-31T02:59:14;4.40;;;4.00;;
57463;SDS011;43309;44.418;26.122;2023-07-31T03:01:42;4.80;;;4.30;;
57463;SDS011;43309;44.418;26.122;2023-07-31T03:04:13;4.40;;;4.00;;
57463;SDS011;43309;44.418;26.122;2023-07-31T03:06:40;5.60;;;4.00;;
57463;SDS011;43309;44.418;26.122;2023-07-31T03:09:10;5.60;;;4.30;;
57463;SDS011;43309;44.418;26.122;2023-07-31T03:11:37;5.20;;;4.00;;
57463;SDS011;43309;44.418;26.122;2023-07-31T03:14:05;4.90;;;3.90;;
57463;SDS011;43309;44.418;26.122;2023-07-31T03:16:32;5.90;;;4.00;;
57463;SDS011;43309;44.418;26.122;2023-07-31T03:18:59;6.30;;;4.50;;
57463;SDS011;43309;44.418;26.122;2023-07-31T03:21:27;7.70;;;4.50;;
57463;SDS011;43309;44.418;26.122;2023-07-31T03:23:54;4.60;;;4.20;;
57463;SDS011;43309;44.418;26.122;2023-07-31T03:26:25;6.00;;;4.60;;
57463;SDS011;43309;44.418;26.122;2023-07-31T03:28:52;6.00;;;4.20;;
57463;SDS011;43309;44.418;26.122;2023-07-31T03:31:20;4.40;;;3.80;;
57463;SDS011;43309;44.418;26.122;2023-07-31T03:33:47;7.60;;;4.20;;
57463;SDS011;43309;44.418;26.122;2023-07-31T03:36:14;5.60;;;4.10;;
57463;SDS011;43309;44.418;26.122;2023-07-31T03:38:43;5.40;;;4.30;;
57463;SDS011;43309;44.418;26.122;2023-07-31T03:41:10;5.60;;;4.20;;
57463;SDS011;43309;44.418;26.122;2023-07-31T03:43:38;4.90;;;4.40;;
57463;SDS011;43309;44.418;26.122;2023-07-31T03:46:05;5.10;;;4.40;;
57463;SDS011;43309;44.418;26.122;2023-07-31T03:48:33;8.50;;;4.30;;
57463;SDS011;43309;44.418;26.122;2023-07-31T03:51:00;5.20;;;4.40;;
57463;SDS011;43309;44.418;26.122;2023-07-31T03:53:28;4.40;;;4.00;;
57463;SDS011;43309;44.418;26.122;2023-07-31T03:55:59;4.70;;;4.20;;
57463;SDS011;43309;44.418;26.122;2023-07-31T03:58:26;6.50;;;4.40;;
57463;SDS011;43309;44.418;26.122;2023-07-31T04:00:53;5.40;;;4.30;;
57463;SDS011;43309;44.418;26.122;2023-07-31T04:03:21;6.10;;;4.20;;
57463;SDS011;43309;44.418;26.122;2023-07-31T04:05:48;4.20;;;3.80;;
57463;SDS011;43309;44.418;26.122;2023-07-31T04:08:16;5.20;;;4.20;;
57463;SDS011;43309;44.418;26.122;2023-07-31T04:10:43;5.10;;;4.50;;
57463;SDS011;43309;44.418;26.122;2023-07-31T04:13:11;4.60;;;4.10;;
57463;SDS011;43309;44.418;26.122;2023-07-31T04:18:14;5.90;;;4.00;;
57463;SDS011;43309;44.418;26.122;2023-07-31T04:20:42;5.80;;;4.50;;
57463;SDS011;43309;44.418;26.122;2023-07-31T04:23:09;4.80;;;4.10;;
57463;SDS011;43309;44.418;26.122;2023-07-31T04:25:37;6.50;;;4.30;;
57463;SDS011;43309;44.418;26.122;2023-07-31T04:28:07;5.50;;;4.20;;
57463;SDS011;43309;44.418;26.122;2023-07-31T04:30:35;4.90;;;4.40;;
57463;SDS011;43309;44.418;26.122;2023-07-31T04:33:04;5.40;;;4.80;;
57463;SDS011;43309;44.418;26.122;2023-07-31T04:35:35;5.00;;;4.50;;
57463;SDS011;43309;44.418;26.122;2023-07-31T04:38:02;4.50;;;4.20;;
57463;SDS011;43309;44.418;26.122;2023-07-31T04:40:31;5.20;;;4.70;;
57463;SDS011;43309;44.418;26.122;2023-07-31T04:42:59;5.30;;;4.40;;
57463;SDS011;43309;44.418;26.122;2023-07-31T04:45:26;4.60;;;4.20;;
57463;SDS011;43309;44.418;26.122;2023-07-31T04:47:54;4.60;;;4.20;;
57463;SDS011;43309;44.418;26.122;2023-07-31T04:50:22;4.80;;;4.40;;
57463;SDS011;43309;44.418;26.122;2023-07-31T04:52:49;4.40;;;4.00;;
57463;SDS011;43309;44.418;26.122;2023-07-31T04:55:17;4.40;;;4.00;;
57463;SDS011;43309;44.418;26.122;2023-07-31T04:57:47;4.90;;;4.20;;
57463;SDS011;43309;44.418;26.122;2023-07-31T05:00:17;4.90;;;4.50;;
57463;SDS011;43309;44.418;26.122;2023-07-31T05:02:45;4.70;;;4.10;;
57463;SDS011;43309;44.418;26.122;2023-07-31T05:05:13;4.70;;;3.80;;
57463;SDS011;43309;44.418;26.122;2023-07-31T05:07:40;4.20;;;3.80;;
57463;SDS011;43309;44.418;26.122;2023-07-31T05:10:08;4.50;;;4.10;;
57463;SDS011;43309;44.418;26.122;2023-07-31T05:12:38;4.00;;;3.70;;
57463;SDS011;43309;44.418;26.122;2023-07-31T05:15:05;4.20;;;3.80;;
57463;SDS011;43309;44.418;26.122;2023-07-31T05:17:33;4.20;;;3.90;;
57463;SDS011;43309;44.418;26.122;2023-07-31T05:20:06;4.20;;;3.80;;
57463;SDS011;43309;44.418;26.122;2023-07-31T05:22:34;4.00;;;3.70;;
57463;SDS011;43309;44.418;26.122;2023-07-31T05:25:02;4.90;;;3.60;;
57463;SDS011;43309;44.418;26.122;2023-07-31T05:27:32;4.20;;;3.70;;
57463;SDS011;43309;44.418;26.122;2023-07-31T05:30:00;4.20;;;3.60;;
57463;SDS011;43309;44.418;26.122;2023-07-31T05:32:27;3.80;;;3.40;;
57463;SDS011;43309;44.418;26.122;2023-07-31T05:34:55;4.60;;;3.70;;
57463;SDS011;43309;44.418;26.122;2023-07-31T05:37:23;6.10;;;3.90;;
57463;SDS011;43309;44.418;26.122;2023-07-31T05:39:52;25.00;;;5.00;;
57463;SDS011;43309;44.418;26.122;2023-07-31T05:42:23;15.80;;;4.30;;
57463;SDS011;43309;44.418;26.122;2023-07-31T05:44:50;8.70;;;3.30;;
57463;SDS011;43309;44.418;26.122;2023-07-31T05:47:22;6.70;;;4.70;;
57463;SDS011;43309;44.418;26.122;2023-07-31T05:49:50;10.40;;;4.50;;
57463;SDS011;43309;44.418;26.122;2023-07-31T05:52:19;9.70;;;6.40;;
57463;SDS011;43309;44.418;26.122;2023-07-31T05:54:49;13.20;;;6.00;;
57463;SDS011;43309;44.418;26.122;2023-07-31T05:57:17;7.50;;;5.20;;
57463;SDS011;43309;44.418;26.122;2023-07-31T05:59:45;7.70;;;4.70;;
57463;SDS011;43309;44.418;26.122;2023-07-31T06:02:14;10.80;;;5.70;;
57463;SDS011;43309;44.418;26.122;2023-07-31T06:04:45;16.20;;;8.80;;
57463;SDS011;43309;44.418;26.122;2023-07-31T06:07:12;38.60;;;13.70;;
57463;SDS011;43309;44.418;26.122;2023-07-31T06:09:42;20.50;;;10.20;;
57463;SDS011;43309;44.418;26.122;2023-07-31T06:12:12;10.30;;;6.70;;
57463;SDS011;43309;44.418;26.122;2023-07-31T06:14:41;16.00;;;5.50;;
57463;SDS011;43309;44.418;26.122;2023-07-31T06:17:09;22.70;;;5.20;;
57463;SDS011;43309;44.418;26.122;2023-07-31T06:19:39;23.40;;;4.50;;
57463;SDS011;43309;44.418;26.122;2023-07-31T06:22:06;39.70;;;5.00;;
57463;SDS011;43309;44.418;26.122;2023-07-31T06:24:33;155.80;;;12.10;;
57463;SDS011;43309;44.418;26.122;2023-07-31T06:27:03;71.70;;;9.70;;
57463;SDS011;43309;44.418;26.122;2023-07-31T06:29:38;80.50;;;11.60;;
57463;SDS011;43309;44.418;26.122;2023-07-31T06:32:09;165.90;;;19.00;;
57463;SDS011;43309;44.418;26.122;2023-07-31T06:34:37;70.60;;;10.90;;
57463;SDS011;43309;44.418;26.122;2023-07-31T06:37:04;39.80;;;7.70;;
57463;SDS011;43309;44.418;26.122;2023-07-31T06:39:32;31.40;;;6.80;;
57463;SDS011;43309;44.418;26.122;2023-07-31T06:42:00;63.90;;;12.60;;
57463;SDS011;43309;44.418;26.122;2023-07-31T06:44:27;35.30;;;8.80;;
57463;SDS011;43309;44.418;26.122;2023-07-31T06:46:54;40.80;;;12.40;;
57463;SDS011;43309;44.418;26.122;2023-07-31T06:49:22;35.60;;;10.00;;
57463;SDS011;43309;44.418;26.122;2023-07-31T06:51:55;24.90;;;9.40;;
57463;SDS011;43309;44.418;26.122;2023-07-31T06:54:22;14.70;;;6.40;;
57463;SDS011;43309;44.418;26.122;2023-07-31T06:56:50;15.30;;;5.30;;
57463;SDS011;43309;44.418;26.122;2023-07-31T06:59:20;12.20;;;4.50;;
57463;SDS011;43309;44.418;26.122;2023-07-31T07:01:48;15.40;;;4.00;;
57463;SDS011;43309;44.418;26.122;2023-07-31T07:04:15;26.50;;;4.70;;
57463;SDS011;43309;44.418;26.122;2023-07-31T07:06:43;11.30;;;3.60;;
57463;SDS011;43309;44.418;26.122;2023-07-31T07:09:10;9.30;;;3.60;;
57463;SDS011;43309;44.418;26.122;2023-07-31T07:11:38;7.50;;;2.90;;
57463;SDS011;43309;44.418;26.122;2023-07-31T07:16:37;20.60;;;3.50;;
57463;SDS011;43309;44.418;26.122;2023-07-31T07:19:05;28.30;;;3.70;;
57463;SDS011;43309;44.418;26.122;2023-07-31T07:21:32;95.40;;;61.70;;
57463;SDS011;43309;44.418;26.122;2023-07-31T07:24:02;55.30;;;32.60;;
57463;SDS011;43309;44.418;26.122;2023-07-31T07:26:30;42.00;;;23.20;;
57463;SDS011;43309;44.418;26.122;2023-07-31T07:28:57;69.20;;;14.80;;
57463;SDS011;43309;44.418;26.122;2023-07-31T07:31:25;19.10;;;7.30;;
57463;SDS011;43309;44.418;26.122;2023-07-31T07:33:55;16.40;;;4.80;;
57463;SDS011;43309;44.418;26.122;2023-07-31T07:36:24;7.60;;;3.80;;
57463;SDS011;43309;44.418;26.122;2023-07-31T07:38:51;14.50;;;4.40;;
57463;SDS011;43309;44.418;26.122;2023-07-31T07:41:19;15.40;;;3.80;;
57463;SDS011;43309;44.418;26.122;2023-07-31T07:43:46;10.10;;;3.40;;
57463;SDS011;43309;44.418;26.122;2023-07-31T07:46:14;19.40;;;3.60;;
57463;SDS011;43309;44.418;26.122;2023-07-31T07:48:43;14.90;;;3.40;;
57463;SDS011;43309;44.418;26.122;2023-07-31T07:51:11;12.50;;;3.30;;
57463;SDS011;43309;44.418;26.122;2023-07-31T07:53:39;13.90;;;3.70;;
57463;SDS011;43309;44.418;26.122;2023-07-31T07:56:07;13.00;;;3.70;;
57463;SDS011;43309;44.418;26.122;2023-07-31T07:58:35;10.40;;;3.40;;
57463;SDS011;43309;44.418;26.122;2023-07-31T08:01:02;43.50;;;4.80;;
57463;SDS011;43309;44.418;26.122;2023-07-31T08:03:29;31.50;;;3.90;;
57463;SDS011;43309;44.418;26.122;2023-07-31T08:06:00;25.00;;;7.30;;
57463;SDS011;43309;44.418;26.122;2023-07-31T08:08:28;81.40;;;33.30;;
57463;SDS011;43309;44.418;26.122;2023-07-31T08:10:56;48.70;;;21.00;;
57463;SDS011;43309;44.418;26.122;2023-07-31T08:13:26;25.30;;;13.90;;
57463;SDS011;43309;44.418;26.122;2023-07-31T08:15:54;19.30;;;9.60;;
57463;SDS011;43309;44.418;26.122;2023-07-31T08:18:21;40.20;;;8.40;;
57463;SDS011;43309;44.418;26.122;2023-07-31T08:20:52;71.40;;;8.70;;
57463;SDS011;43309;44.418;26.122;2023-07-31T08:23:22;51.70;;;6.90;;
57463;SDS011;43309;44.418;26.122;2023-07-31T08:25:49;23.10;;;5.30;;
57463;SDS011;43309;44.418;26.122;2023-07-31T08:28:17;28.10;;;5.00;;
57463;SDS011;43309;44.418;26.122;2023-07-31T08:30:47;25.50;;;4.50;;
57463;SDS011;43309;44.418;26.122;2023-07-31T08:33:14;17.30;;;4.10;;
57463;SDS011;43309;44.418;26.122;2023-07-31T08:35:42;10.00;;;4.10;;
57463;SDS011;43309;44.418;26.122;2023-07-31T08:38:10;15.00;;;4.70;;
57463;SDS011;43309;44.418;26.122;2023-07-31T08:40:38;8.40;;;4.00;;
57463;SDS011;43309;44.418;26.122;2023-07-31T08:43:05;4.10;;;3.50;;
57463;SDS011;43309;44.418;26.122;2023-07-31T08:45:34;12.50;;;3.80;;
57463;SDS011;43309;44.418;26.122;2023-07-31T08:48:02;15.40;;;3.80;;
57463;SDS011;43309;44.418;26.122;2023-07-31T08:50:31;11.20;;;3.60;;
57463;SDS011;43309;44.418;26.122;2023-07-31T08:52:59;12.20;;;3.90;;
57463;SDS011;43309;44.418;26.122;2023-07-31T08:55:27;12.30;;;3.70;;
57463;SDS011;43309;44.418;26.122;2023-07-31T08:57:58;8.10;;;3.70;;
57463;SDS011;43309;44.418;26.122;2023-07-31T09:00:26;8.60;;;3.80;;
57463;SDS011;43309;44.418;26.122;2023-07-31T09:02:59;25.90;;;4.60;;
57463;SDS011;43309;44.418;26.122;2023-07-31T09:05:30;39.90;;;12.40;;
57463;SDS011;43309;44.418;26.122;2023-07-31T09:08:01;62.40;;;15.40;;
57463;SDS011;43309;44.418;26.122;2023-07-31T09:10:29;63.00;;;18.80;;
57463;SDS011;43309;44.418;26.122;2023-07-31T09:12:57;31.10;;;12.50;;
57463;SDS011;43309;44.418;26.122;2023-07-31T09:15:25;21.50;;;9.60;;
57463;SDS011;43309;44.418;26.122;2023-07-31T09:18:02;13.80;;;8.50;;
57463;SDS011;43309;44.418;26.122;2023-07-31T09:20:30;15.70;;;8.90;;
57463;SDS011;43309;44.418;26.122;2023-07-31T09:23:08;7.90;;;5.80;;
57463;SDS011;43309;44.418;26.122;2023-07-31T09:25:38;9.40;;;5.40;;
57463;SDS011;43309;44.418;26.122;2023-07-31T09:28:10;7.90;;;5.60;;
57463;SDS011;43309;44.418;26.122;2023-07-31T09:30:47;6.30;;;5.10;;
57463;SDS011;43309;44.418;26.122;2023-07-31T09:33:16;9.00;;;5.00;;
57463;SDS011;43309;44.418;26.122;2023-07-31T09:35:44;5.00;;;4.30;;
57463;SDS011;43309;44.418;26.122;2023-07-31T09:38:17;4.80;;;4.10;;
57463;SDS011;43309;44.418;26.122;2023-07-31T09:40:47;6.10;;;4.00;;
57463;SDS011;43309;44.418;26.122;2023-07-31T09:43:17;4.00;;;3.60;;
57463;SDS011;43309;44.418;26.122;2023-07-31T09:45:52;6.00;;;3.70;;
57463;SDS011;43309;44.418;26.122;2023-07-31T09:48:22;4.90;;;3.50;;
57463;SDS011;43309;44.418;26.122;2023-07-31T09:50:52;5.00;;;3.80;;
57463;SDS011;43309;44.418;26.122;2023-07-31T09:53:22;4.80;;;3.80;;
57463;SDS011;43309;44.418;26.122;2023-07-31T09:55:57;4.50;;;3.70;;
57463;SDS011;43309;44.418;26.122;2023-07-31T09:58:26;3.60;;;3.30;;
57463;SDS011;43309;44.418;26.122;2023-07-31T10:00:55;4.40;;;4.00;;
57463;SDS011;43309;44.418;26.122;2023-07-31T10:03:28;4.40;;;4.00;;
57463;SDS011;43309;44.418;26.122;2023-07-31T10:05:57;7.50;;;5.10;;
57463;SDS011;43309;44.418;26.122;2023-07-31T10:08:28;9.20;;;6.50;;
57463;SDS011;43309;44.418;26.122;2023-07-31T10:10:58;14.30;;;6.60;;
57463;SDS011;43309;44.418;26.122;2023-07-31T10:13:26;11.20;;;8.30;;
57463;SDS011;43309;44.418;26.122;2023-07-31T10:15:54;8.70;;;6.40;;
57463;SDS011;43309;44.418;26.122;2023-07-31T10:20:54;5.10;;;4.50;;
57463;SDS011;43309;44.418;26.122;2023-07-31T10:23:26;8.60;;;4.70;;
57463;SDS011;43309;44.418;26.122;2023-07-31T10:25:54;4.90;;;4.30;;
57463;SDS011;43309;44.418;26.122;2023-07-31T10:28:22;6.00;;;4.70;;
57463;SDS011;43309;44.418;26.122;2023-07-31T10:30:52;4.60;;;4.10;;
57463;SDS011;43309;44.418;26.122;2023-07-31T10:33:20;4.20;;;3.80;;
57463;SDS011;43309;44.418;26.122;2023-07-31T10:35:50;7.50;;;3.80;;
57463;SDS011;43309;44.418;26.122;2023-07-31T10:38:20;6.50;;;4.30;;
57463;SDS011;43309;44.418;26.122;2023-07-31T10:41:07;12.30;;;4.70;;
57463;SDS011;43309;44.418;26.122;2023-07-31T10:43:38;12.10;;;4.40;;
57463;SDS011;43309;44.418;26.122;2023-07-31T10:46:11;17.10;;;5.60;;
57463;SDS011;43309;44.418;26.122;2023-07-31T10:48:40;15.40;;;5.60;;
57463;SDS011;43309;44.418;26.122;2023-07-31T10:51:09;26.50;;;5.80;;
57463;SDS011;43309;44.418;26.122;2023-07-31T10:53:39;21.30;;;5.60;;
57463;SDS011;43309;44.418;26.122;2023-07-31T10:56:09;25.20;;;6.10;;
57463;SDS011;43309;44.418;26.122;2023-07-31T10:59:00;18.70;;;5.60;;
57463;SDS011;43309;44.418;26.122;2023-07-31T11:01:49;31.60;;;8.20;;
57463;SDS011;43309;44.418;26.122;2023-07-31T11:04:23;18.70;;;5.00;;
57463;SDS011;43309;44.418;26.122;2023-07-31T11:06:58;23.90;;;5.40;;
57463;SDS011;43309;44.418;26.122;2023-07-31T11:09:30;44.10;;;5.40;;
57463;SDS011;43309;44.418;26.122;2023-07-31T11:11:59;42.90;;;6.20;;
57463;SDS011;43309;44.418;26.122;2023-07-31T11:14:27;35.90;;;5.70;;
57463;SDS011;43309;44.418;26.122;2023-07-31T11:16:57;28.10;;;5.40;;
57463;SDS011;43309;44.418;26.122;2023-07-31T11:19:24;23.80;;;7.90;;
57463;SDS011;43309;44.418;26.122;2023-07-31T11:21:55;57.60;;;26.80;;
57463;SDS011;43309;44.418;26.122;2023-07-31T11:24:26;56.50;;;31.00;;
57463;SDS011;43309;44.418;26.122;2023-07-31T11:26:54;42.90;;;28.50;;
57463;SDS011;43309;44.418;26.122;2023-07-31T11:29:21;39.80;;;20.80;;
57463;SDS011;43309;44.418;26.122;2023-07-31T11:31:54;34.80;;;18.70;;
57463;SDS011;43309;44.418;26.122;2023-07-31T11:34:22;27.30;;;18.20;;
57463;SDS011;43309;44.418;26.122;2023-07-31T11:36:55;33.20;;;14.90;;
57463;SDS011;43309;44.418;26.122;2023-07-31T11:39:25;28.60;;;11.10;;
57463;SDS011;43309;44.418;26.122;2023-07-31T11:41:58;12.90;;;7.30;;
57463;SDS011;43309;44.418;26.122;2023-07-31T11:44:26;10.30;;;6.30;;
57463;SDS011;43309;44.418;26.122;2023-07-31T11:47:05;14.80;;;9.90;;
57463;SDS011;43309;44.418;26.122;2023-07-31T11:49:36;94.70;;;11.80;;
57463;SDS011;43309;44.418;26.122;2023-07-31T11:52:07;1999.90;;;191.10;;
57463;SDS011;43309;44.418;26.122;2023-07-31T11:54:35;1331.60;;;113.30;;
57463;SDS011;43309;44.418;26.122;2023-07-31T11:57:02;1004.40;;;82.80;;
57463;SDS011;43309;44.418;26.122;2023-07-31T11:59:31;978.80;;;72.80;;
57463;SDS011;43309;44.418;26.122;2023-07-31T12:01:58;855.70;;;61.20;;
57463;SDS011;43309;44.418;26.122;2023-07-31T12:04:29;1042.00;;;73.50;;
57463;SDS011;43309;44.418;26.122;2023-07-31T12:06:57;1999.90;;;489.70;;
57463;SDS011;43309;44.418;26.122;2023-07-31T12:09:27;1999.90;;;237.60;;
57463;SDS011;43309;44.418;26.122;2023-07-31T12:11:54;1140.90;;;93.70;;
57463;SDS011;43309;44.418;26.122;2023-07-31T12:14:25;860.60;;;72.70;;
57463;SDS011;43309;44.418;26.122;2023-07-31T12:16:58;502.90;;;36.50;;
57463;SDS011;43309;44.418;26.122;2023-07-31T12:19:27;307.70;;;23.60;;
57463;SDS011;43309;44.418;26.122;2023-07-31T12:21:57;115.80;;;11.10;;
57463;SDS011;43309;44.418;26.122;2023-07-31T12:24:26;164.70;;;14.20;;
57463;SDS011;43309;44.418;26.122;2023-07-31T12:26:54;133.40;;;12.50;;
57463;SDS011;43309;44.418;26.122;2023-07-31T12:29:22;105.90;;;9.30;;
57463;SDS011;43309;44.418;26.122;2023-07-31T12:31:52;99.80;;;9.30;;
57463;SDS011;43309;44.418;26.122;2023-07-31T12:34:20;117.50;;;10.40;;
57463;SDS011;43309;44.418;26.122;2023-07-31T12:36:53;44.40;;;6.20;;
57463;SDS011;43309;44.418;26.122;2023-07-31T12:39:23;22.10;;;4.80;;
57463;SDS011;43309;44.418;26.122;2023-07-31T12:41:51;22.30;;;4.70;;
57463;SDS011;43309;44.418;26.122;2023-07-31T12:44:18;19.10;;;4.20;;
57463;SDS011;43309;44.418;26.122;2023-07-31T12:46:45;16.90;;;4.20;;
57463;SDS011;43309;44.418;26.122;2023-07-31T12:49:15;20.10;;;3.90;;
57463;SDS011;43309;44.418;26.122;2023-07-31T12:51:42;29.50;;;8.20;;
57463;SDS011;43309;44.418;26.122;2023-07-31T12:54:12;37.80;;;7.90;;
57463;SDS011;43309;44.418;26.122;2023-07-31T12:56:43;11.90;;;6.20;;
57463;SDS011;43309;44.418;26.122;2023-07-31T12:59:10;67.50;;;34.60;;
57463;SDS011;43309;44.418;26.122;2023-07-31T13:01:38;52.00;;;30.40;;
57463;SDS011;43309;44.418;26.122;2023-07-31T13:04:05;11.90;;;7.90;;
57463;SDS011;43309;44.418;26.122;2023-07-31T13:06:36;8.90;;;7.90;;
57463;SDS011;43309;44.418;26.122;2023-07-31T13:09:07;16.90;;;11.50;;
57463;SDS011;43309;44.418;26.122;2023-07-31T13:11:35;60.00;;;36.40;;
57463;SDS011;43309;44.418;26.122;2023-07-31T13:14:02;114.60;;;36.00;;
57463;SDS011;43309;44.418;26.122;2023-07-31T13:16:30;69.10;;;18.10;;
57463;SDS011;43309;44.418;26.122;2023-07-31T13:18:57;164.00;;;15.70;;
57463;SDS011;43309;44.418;26.122;2023-07-31T13:21:25;44.30;;;8.20;;
57463;SDS011;43309;44.418;26.122;2023-07-31T13:23:53;141.30;;;15.20;;
57463;SDS011;43309;44.418;26.122;2023-07-31T13:26:20;95.30;;;14.90;;
57463;SDS011;43309;44.418;26.122;2023-07-31T13:28:47;69.90;;;11.90;;
57463;SDS011;43309;44.418;26.122;2023-07-31T13:31:14;42.10;;;8.10;;
57463;SDS011;43309;44.418;26.122;2023-07-31T13:33:42;34.20;;;7.00;;
57463;SDS011;43309;44.418;26.122;2023-07-31T13:36:10;84.90;;;16.10;;
57463;SDS011;43309;44.418;26.122;2023-07-31T13:38:38;95.70;;;14.60;;
57463;SDS011;43309;44.418;26.122;2023-07-31T13:41:06;69.90;;;18.30;;
57463;SDS011;43309;44.418;26.122;2023-07-31T13:43:33;48.50;;;17.20;;
57463;SDS011;43309;44.418;26.122;2023-07-31T13:46:01;55.30;;;25.40;;
57463;SDS011;43309;44.418;26.122;2023-07-31T13:48:36;44.80;;;20.60;;
57463;SDS011;43309;44.418;26.122;2023-07-31T13:51:03;47.80;;;21.20;;
57463;SDS011;43309;44.418;26.122;2023-07-31T13:53:31;367.60;;;28.90;;
57463;SDS011;43309;44.418;26.122;2023-07-31T13:55:59;83.70;;;19.90;;
57463;SDS011;43309;44.418;26.122;2023-07-31T13:58:26;51.40;;;14.40;;
57463;SDS011;43309;44.418;26.122;2023-07-31T14:00:55;30.70;;;9.70;;
57463;SDS011;43309;44.418;26.122;2023-07-31T14:03:22;20.90;;;7.20;;
57463;SDS011;43309;44.418;26.122;2023-07-31T14:05:51;16.20;;;5.40;;
57463;SDS011;43309;44.418;26.122;2023-07-31T14:08:19;13.70;;;6.80;;
57463;SDS011;43309;44.418;26.122;2023-07-31T14:10:49;108.00;;;16.10;;
57463;SDS011;43309;44.418;26.122;2023-07-31T14:13:17;46.30;;;10.90;;
57463;SDS011;43309;44.418;26.122;2023-07-31T14:15:44;84.40;;;30.70;;
57463;SDS011;43309;44.418;26.122;2023-07-31T14:18:12;155.20;;;60.50;;
57463;SDS011;43309;44.418;26.122;2023-07-31T14:20:42;122.80;;;57.80;;
57463;SDS011;43309;44.418;26.122;2023-07-31T14:25:41;41.00;;;20.30;;
57463;SDS011;43309;44.418;26.122;2023-07-31T14:28:18;29.60;;;14.00;;
57463;SDS011;43309;44.418;26.122;2023-07-31T14:30:50;14.10;;;9.70;;
57463;SDS011;43309;44.418;26.122;2023-07-31T14:33:17;15.10;;;7.70;;
57463;SDS011;43309;44.418;26.122;2023-07-31T14:35:45;12.10;;;6.90;;
57463;SDS011;43309;44.418;26.122;2023-07-31T14:38:12;14.90;;;6.80;;
57463;SDS011;43309;44.418;26.122;2023-07-31T14:40:43;10.70;;;6.70;;
57463;SDS011;43309;44.418;26.122;2023-07-31T14:43:11;8.40;;;5.10;;
57463;SDS011;43309;44.418;26.122;2023-07-31T14:45:38;13.10;;;5.90;;
57463;SDS011;43309;44.418;26.122;2023-07-31T14:48:05;9.40;;;5.30;;
57463;SDS011;43309;44.418;26.122;2023-07-31T14:50:34;17.70;;;5.30;;
57463;SDS011;43309;44.418;26.122;2023-07-31T14:53:01;9.20;;;4.40;;
57463;SDS011;43309;44.418;26.122;2023-07-31T14:55:29;20.30;;;5.30;;